Time;durP1;ratioP1;P1;durP2;ratioP2;P2;SDS_P1;SDS_P2;PMS_P1;PMS_P2;Temp;Humidity;BMP_temperature;BMP_pressure;BME280_temperature;BME280_humidity;BME280_pressure;Samples;Min_cycle;Max_cycle;Signal;HPM_P1;HPM_P2
2021/11/20 00:00:59;918520.00;3.06;1588.67;145675.00;0.49;252.35;;;;;11.10;1.00;;;;;;2272598;61;983;-88
2021/11/20 00:03:26;1266084.00;4.22;2210.17;146431.00;0.49;253.66;;;;;11.20;1.00;;;;;;2272576;61;1043;-84
2021/11/20 00:05:56;1151808.00;3.84;2003.33;124891.00;0.42;216.52;;;;;11.00;1.00;;;;;;2268779;61;1407;-87
2021/11/20 00:08:24;996012.00;3.32;1725.41;87349.00;0.29;151.73;;;;;11.20;1.00;;;;;;2267998;61;1018;-86
2021/11/20 00:10:54;1360973.00;4.54;2384.14;118860.00;0.40;206.12;;;;;11.40;1.00;;;;;;2263920;61;1924;-87
2021/11/20 00:13:21;1268957.00;4.23;2215.40;183531.00;0.61;317.57;;;;;11.20;1.00;;;;;;2255958;61;922;-86
2021/11/20 00:15:51;863891.00;2.88;1492.79;88123.00;0.29;153.07;;;;;11.20;1.00;;;;;;2251942;61;1421;-86
2021/11/20 00:18:19;120242056.00;400.81;70424840.00;155110.00;0.52;268.61;;;;;11.10;1.00;;;;;;2245445;61;998;-88
2021/11/20 00:20:53;520596.00;1.74;897.29;91522.00;0.31;158.94;;;;;10.90;1.00;;;;;;2251992;61;1805;-88
2021/11/20 00:23:24;831249.00;2.77;1435.68;130785.00;0.44;226.68;;;;;10.60;1.00;;;;;;2245805;61;1020;-86
2021/11/20 00:25:52;1081942.00;3.61;1878.16;185799.00;0.62;321.48;;;;;10.40;1.00;;;;;;2240786;61;1331;-86
2021/11/20 00:28:21;735916.00;2.45;1269.58;89104.00;0.30;154.76;;;;;10.50;1.00;;;;;;2241785;61;1053;-88
2021/11/20 00:30:58;1360529.00;4.54;2383.32;183589.00;0.61;317.67;;;;;10.90;1.20;;;;;;2240035;61;1915;-87
2021/11/20 00:33:30;423457.00;1.41;730.13;85120.00;0.28;147.88;;;;;10.90;1.00;;;;;;2255055;61;948;-85
2021/11/20 00:35:59;490276.00;1.63;845.08;88563.00;0.30;153.83;;;;;11.00;1.00;;;;;;2254016;61;1289;-87
2021/11/20 00:38:28;407383.00;1.36;702.50;93582.00;0.31;162.49;;;;;11.00;1.00;;;;;;2260654;61;1003;-87
2021/11/20 00:40:59;543424.00;1.81;936.62;79245.00;0.26;137.73;;;;;11.10;1.00;;;;;;2260665;61;1153;-86
2021/11/20 00:43:27;417719.00;1.39;720.27;82311.00;0.27;143.03;;;;;11.00;1.00;;;;;;2251942;61;943;-88
2021/11/20 00:45:54;564977.00;1.88;973.78;89444.00;0.30;155.35;;;;;10.80;1.00;;;;;;2264689;61;1318;-85
2021/11/20 00:48:24;570039.00;1.90;982.51;83891.00;0.28;145.76;;;;;11.10;1.00;;;;;;2264712;61;1022;-86
2021/11/20 00:50:54;505152.00;1.68;870.69;119489.00;0.40;207.20;;;;;11.10;1.00;;;;;;2256601;61;1910;-87
2021/11/20 00:53:22;637454.00;2.12;1098.94;83314.00;0.28;144.76;;;;;11.30;1.00;;;;;;2273198;61;935;-87
2021/11/20 00:55:50;608009.00;2.03;1048.05;103647.00;0.35;179.87;;;;;11.20;1.00;;;;;;2273095;61;1376;-87
2021/11/20 00:58:17;468421.00;1.56;807.47;101291.00;0.34;175.80;;;;;11.60;1.00;;;;;;2273177;61;1063;-87
2021/11/20 01:00:47;356591.00;1.19;615.19;83550.00;0.28;145.17;;;;;11.10;1.00;;;;;;2273156;61;1122;-86
2021/11/20 01:03:16;369970.00;1.23;638.19;95754.00;0.32;166.24;;;;;10.50;1.00;;;;;;2262775;61;1021;-87
2021/11/20 01:05:43;319612.00;1.07;551.63;88709.00;0.30;154.08;;;;;10.60;1.70;;;;;;2264504;61;1408;-86
2021/11/20 01:08:13;339506.00;1.13;585.82;90344.00;0.30;156.90;;;;;10.90;1.00;;;;;;2257919;61;1005;-87
2021/11/20 01:10:43;318053.00;1.06;548.95;97079.00;0.32;168.53;;;;;11.30;1.10;;;;;;2256499;61;1002;-87
2021/11/20 01:13:13;486593.00;1.62;838.74;82669.00;0.28;143.65;;;;;11.40;1.00;;;;;;2256625;61;1043;-87
2021/11/20 01:15:48;420617.00;1.40;725.25;93792.00;0.31;162.85;;;;;11.30;1.00;;;;;;2256601;61;1365;-88
2021/11/20 01:18:17;478783.00;1.60;825.30;86397.00;0.29;150.09;;;;;11.60;1.00;;;;;;2256567;61;1005;-88
2021/11/20 01:20:44;452439.00;1.51;779.98;87334.00;0.29;151.70;;;;;11.60;1.00;;;;;;2256602;61;1004;-86
2021/11/20 01:23:11;235317.00;0.78;406.70;85824.00;0.29;149.10;;;;;11.60;1.00;;;;;;2258517;61;1034;-88
2021/11/20 01:25:38;269908.00;0.90;466.19;90564.00;0.30;157.28;;;;;11.70;1.00;;;;;;2264513;61;1395;-87
2021/11/20 01:28:06;721304.00;2.40;1244.20;87929.00;0.29;152.73;;;;;11.40;1.00;;;;;;2266248;61;1000;-87
2021/11/20 01:30:35;378569.00;1.26;652.97;77703.00;0.26;135.07;;;;;11.40;1.00;;;;;;2265931;61;994;-87
2021/11/20 01:33:02;614224.00;2.05;1058.79;174513.00;0.58;302.04;;;;;11.60;1.00;;;;;;2272953;61;1937;-88
2021/11/20 01:35:29;417398.00;1.39;719.72;89317.00;0.30;155.13;;;;;11.70;1.00;;;;;;2272949;61;1372;-86
2021/11/20 01:37:56;545074.00;1.82;939.47;135287.00;0.45;234.45;;;;;11.70;1.00;;;;;;2264376;61;1060;-86
2021/11/20 01:40:29;257670.00;0.86;445.14;66948.00;0.22;116.49;;;;;11.60;1.00;;;;;;2254541;61;935;-87
2021/11/20 01:42:56;209540.00;0.70;362.34;87713.00;0.29;152.36;;;;;11.70;1.00;;;;;;2257792;61;997;-88
2021/11/20 01:45:27;228697.00;0.76;395.31;86798.00;0.29;150.78;;;;;11.60;1.00;;;;;;2256353;61;1381;-86
2021/11/20 01:47:58;283288.00;0.94;489.19;67607.00;0.23;117.63;;;;;11.60;1.00;;;;;;2253113;61;992;-88
2021/11/20 01:50:34;475133.00;1.58;819.02;82183.00;0.27;142.81;;;;;11.70;1.00;;;;;;2249797;61;1015;-87
2021/11/20 01:53:07;278788.00;0.93;481.45;80647.00;0.27;140.15;;;;;11.90;1.00;;;;;;2256422;61;1931;-86
2021/11/20 01:55:39;400682.00;1.34;690.98;91286.00;0.30;158.53;;;;;11.80;1.00;;;;;;2253582;61;1430;-86
2021/11/20 01:58:24;363137.00;1.21;626.44;83257.00;0.28;144.66;;;;;11.70;1.00;;;;;;2256404;61;1056;-87
2021/11/20 02:00:55;560323.00;1.87;965.76;82360.00;0.27;143.11;;;;;11.60;1.00;;;;;;2256443;61;1018;-86
2021/11/20 02:03:29;525221.00;1.75;905.26;91795.00;0.31;159.41;;;;;11.50;1.00;;;;;;2254196;61;985;-86
2021/11/20 02:06:04;474424.00;1.58;817.80;98912.00;0.33;171.69;;;;;11.50;1.00;;;;;;2256428;61;1319;-86
2021/11/20 02:08:39;418918.00;1.40;722.33;87925.00;0.29;152.72;;;;;11.60;1.00;;;;;;2253069;61;1029;-87
2021/11/20 02:11:09;611709.00;2.04;1054.44;105792.00;0.35;183.57;;;;;11.60;1.00;;;;;;2252985;61;1923;-87
2021/11/20 02:13:37;558144.00;1.86;962.00;95073.00;0.32;165.07;;;;;11.80;1.00;;;;;;2252301;61;1025;-86
2021/11/20 02:16:09;385170.00;1.28;664.31;81843.00;0.27;142.22;;;;;11.90;1.00;;;;;;2256348;61;1442;-87
2021/11/20 02:18:40;491827.00;1.64;847.75;100277.00;0.33;174.05;;;;;11.80;1.00;;;;;;2256407;61;1040;-87
2021/11/20 02:21:12;591160.00;1.97;1018.96;90087.00;0.30;156.46;;;;;11.70;1.00;;;;;;2257831;61;1169;-88
2021/11/20 02:23:39;409442.00;1.36;706.04;83159.00;0.28;144.49;;;;;11.70;1.00;;;;;;2252340;61;998;-87
2021/11/20 02:26:06;372196.00;1.24;642.01;89579.00;0.30;155.58;;;;;11.50;1.00;;;;;;2252335;61;1444;-87
2021/11/20 02:28:36;375357.00;1.25;647.44;147770.00;0.49;255.96;;;;;11.70;1.00;;;;;;2252141;61;1064;-87
2021/11/20 02:31:05;398813.00;1.33;687.76;120061.00;0.40;208.19;;;;;11.50;1.00;;;;;;2255093;61;1032;-86
2021/11/20 02:33:34;361631.00;1.21;623.85;90008.00;0.30;156.32;;;;;11.70;1.00;;;;;;2257662;61;2010;-88
2021/11/20 02:36:04;655828.00;2.19;1130.72;152868.00;0.51;264.75;;;;;11.80;1.00;;;;;;2260903;61;1469;-87
2021/11/20 02:38:36;376998.00;1.26;650.27;84122.00;0.28;146.16;;;;;11.90;1.00;;;;;;2264320;61;1029;-86
2021/11/20 02:41:03;421909.00;1.41;727.47;82281.00;0.27;142.98;;;;;12.00;1.00;;;;;;2266090;61;1014;-87
2021/11/20 02:43:36;256413.00;0.85;442.98;86492.00;0.29;150.25;;;;;11.90;1.00;;;;;;2264261;61;986;-88
2021/11/20 02:46:07;480965.00;1.60;829.06;69831.00;0.23;121.47;;;;;11.70;1.00;;;;;;2254156;61;1485;-88
2021/11/20 02:48:34;507986.00;1.69;875.57;88963.00;0.30;154.52;;;;;11.60;1.00;;;;;;2252217;61;960;-84
2021/11/20 02:51:06;406728.00;1.36;701.37;93499.00;0.31;162.35;;;;;11.50;1.00;;;;;;2248897;61;1013;-86
2021/11/20 02:53:36;444659.00;1.48;766.60;76847.00;0.26;133.59;;;;;11.60;1.00;;;;;;2245659;61;2014;-86
2021/11/20 02:56:05;415397.00;1.38;716.28;84032.00;0.28;146.00;;;;;11.70;1.00;;;;;;2248884;61;1376;-85
2021/11/20 02:58:33;455835.00;1.52;785.82;88938.00;0.30;154.47;;;;;11.80;1.00;;;;;;2248834;61;961;-88
2021/11/20 03:01:03;269167.00;0.90;464.91;86059.00;0.29;149.50;;;;;11.80;1.00;;;;;;2252261;61;1041;-87
2021/11/20 03:03:32;264492.00;0.88;456.87;86356.00;0.29;150.02;;;;;11.50;1.00;;;;;;2252249;61;1075;-87
2021/11/20 03:05:59;380874.00;1.27;656.93;84942.00;0.28;147.57;;;;;11.50;1.00;;;;;;2254855;61;1484;-88
2021/11/20 03:08:26;320685.00;1.07;553.48;88094.00;0.29;153.02;;;;;11.30;1.00;;;;;;2261658;61;1048;-87
2021/11/20 03:10:53;518673.00;1.73;893.98;111568.00;0.37;193.54;;;;;11.60;1.00;;;;;;2260852;61;1142;-87
2021/11/20 03:13:20;117029104.00;390.10;64924192.00;89818.00;0.30;155.99;;;;;11.40;1.00;;;;;;2256117;61;2018;-85
2021/11/20 03:15:47;276393.00;0.92;477.34;92304.00;0.31;160.29;;;;;11.50;1.00;;;;;;2249527;61;1378;-88
2021/11/20 03:18:15;240162.00;0.80;415.03;88174.00;0.29;153.15;;;;;11.40;1.00;;;;;;2256192;61;986;-85
2021/11/20 03:20:44;430374.00;1.43;742.03;127967.00;0.43;221.82;;;;;11.50;1.00;;;;;;2248132;61;1066;-87
2021/11/20 03:23:17;169314.00;0.56;293.08;79676.00;0.27;138.48;;;;;11.90;1.00;;;;;;2238435;61;994;-86
2021/11/20 03:25:44;320657.00;1.07;553.43;106733.00;0.36;185.19;;;;;12.00;1.00;;;;;;2248802;61;1377;-85
2021/11/20 03:28:11;179003.00;0.60;309.77;0.00;0.00;0.62;;;;;11.70;1.00;;;;;;2252161;61;1635;-86
2021/11/20 03:30:40;125944.00;0.42;218.33;0.00;0.00;0.62;;;;;11.40;1.00;;;;;;2247651;61;1136;-87
2021/11/20 03:33:08;75337.00;0.25;130.98;0.00;0.00;0.62;;;;;11.50;1.00;;;;;;2264140;61;1918;-88
2021/11/20 03:35:39;32520.00;0.11;56.94;0.00;0.00;0.62;;;;;11.70;1.00;;;;;;2264121;61;1276;-87
2021/11/20 03:38:07;89620.00;0.30;155.65;0.00;0.00;0.62;;;;;12.10;1.00;;;;;;2266001;61;954;-86
2021/11/20 03:40:34;118908.00;0.40;206.20;14683.00;0.05;26.06;;;;;12.00;1.00;;;;;;2268090;61;1066;-87
2021/11/20 03:43:01;252183.00;0.84;435.71;44451.00;0.15;77.59;;;;;11.80;1.00;;;;;;2268200;61;1024;-87
2021/11/20 03:45:30;175504.00;0.59;303.75;22831.00;0.08;40.17;;;;;11.70;1.00;;;;;;2264729;61;1460;-88
2021/11/20 03:47:57;90860.00;0.30;157.79;0.00;0.00;0.62;;;;;11.90;1.00;;;;;;2258164;61;973;-88
2021/11/20 03:50:25;38310.00;0.13;66.96;0.00;0.00;0.62;;;;;12.00;1.00;;;;;;2268191;61;1082;-88
2021/11/20 03:52:53;37658.00;0.13;65.84;0.00;0.00;0.62;;;;;11.90;1.00;;;;;;2259979;61;1914;-87
2021/11/20 03:55:25;95743.00;0.32;166.22;0.00;0.00;0.62;;;;;11.60;1.00;;;;;;2256686;61;1309;-86
2021/11/20 03:57:53;260489.00;0.87;449.99;90444.00;0.30;157.07;;;;;11.50;1.00;;;;;;2260796;61;955;-88
2021/11/20 04:00:22;193472.00;0.64;334.69;88574.00;0.30;153.85;;;;;11.60;1.00;;;;;;2264119;61;1166;-88
2021/11/20 04:02:49;262167.00;0.87;452.87;95131.00;0.32;165.17;;;;;11.50;1.00;;;;;;2260008;61;955;-86
2021/11/20 04:05:18;284674.00;0.95;491.57;86629.00;0.29;150.49;;;;;11.60;1.00;;;;;;2260049;61;1452;-87
2021/11/20 04:07:45;408189.00;1.36;703.88;133182.00;0.44;230.82;;;;;11.50;1.00;;;;;;2256626;61;945;-87
2021/11/20 04:10:13;105895.00;0.35;183.75;0.00;0.00;0.62;;;;;11.40;1.00;;;;;;2254790;61;960;-87
2021/11/20 04:12:42;29510.00;0.10;51.73;0.00;0.00;0.62;;;;;11.10;1.00;;;;;;2264664;61;1993;-87
2021/11/20 04:15:12;49090.00;0.16;85.61;0.00;0.00;0.62;;;;;11.00;1.00;;;;;;2268016;61;1443;-87
2021/11/20 04:17:39;559251.00;1.86;963.91;142471.00;0.47;246.83;;;;;11.20;1.00;;;;;;2261364;61;984;-87
2021/11/20 04:20:08;188288.00;0.63;325.76;0.00;0.00;0.62;;;;;11.00;1.00;;;;;;2265344;61;1041;-86
2021/11/20 04:22:35;381399.00;1.27;657.83;98590.00;0.33;171.14;;;;;11.00;1.00;;;;;;2265437;61;961;-87
2021/11/20 04:25:01;417444.00;1.39;719.80;116311.00;0.39;201.72;;;;;11.00;1.00;;;;;;2272513;61;1443;-87
2021/11/20 04:27:28;334556.00;1.12;577.32;85437.00;0.28;148.43;;;;;11.00;1.00;;;;;;2272473;61;993;-87
2021/11/20 04:29:56;197868.00;0.66;342.25;93107.00;0.31;161.67;;;;;10.70;1.30;;;;;;2265435;61;993;-87
2021/11/20 04:32:24;345835.00;1.15;596.70;103549.00;0.35;179.70;;;;;10.50;1.00;;;;;;2265429;61;1914;-86
2021/11/20 04:34:51;11863.00;0.04;21.18;0.00;0.00;0.62;;;;;10.50;1.90;;;;;;2265427;61;1341;-88
2021/11/20 04:37:17;85255.00;0.28;148.11;0.00;0.00;0.62;;;;;10.50;1.40;;;;;;2263928;61;1026;-87
2021/11/20 04:39:44;6310.00;0.02;11.56;0.00;0.00;0.62;;;;;10.50;3.10;;;;;;2260609;61;1088;-87
2021/11/20 04:42:11;55634.00;0.19;96.93;0.00;0.00;0.62;;;;;10.80;1.60;;;;;;2259902;61;976;-85
2021/11/20 04:44:38;121776.00;0.41;211.15;0.00;0.00;0.62;;;;;10.70;1.10;;;;;;2247873;61;1382;-87
2021/11/20 04:47:07;212759.00;0.71;367.88;0.00;0.00;0.62;;;;;11.00;1.00;;;;;;2248003;61;1043;-88
2021/11/20 04:49:33;251407.00;0.84;434.37;0.00;0.00;0.62;;;;;10.80;1.00;;;;;;2247993;61;1056;-87
2021/11/20 04:52:00;158988.00;0.53;275.30;0.00;0.00;0.62;;;;;10.40;1.00;;;;;;2247973;61;1986;-86
2021/11/20 04:54:27;79213.00;0.26;137.68;0.00;0.00;0.62;;;;;10.10;1.40;;;;;;2245045;61;1351;-87
2021/11/20 04:56:54;126841.00;0.42;219.88;0.00;0.00;0.62;;;;;9.90;3.20;;;;;;2242043;61;947;-86
2021/11/20 04:59:21;38932.00;0.13;68.04;0.00;0.00;0.62;;;;;9.70;4.80;;;;;;2249399;61;955;-87
2021/11/20 05:01:48;192836.00;0.64;333.59;0.00;0.00;0.62;;;;;10.10;3.80;;;;;;2261238;61;1047;-87
2021/11/20 05:04:17;67333.00;0.22;117.15;0.00;0.00;0.62;;;;;10.20;2.70;;;;;;2265318;61;1042;-86
2021/11/20 05:06:44;149067.00;0.50;258.20;0.00;0.00;0.62;;;;;10.30;2.20;;;;;;2265339;61;1373;-87
2021/11/20 05:09:11;174026.00;0.58;301.20;0.00;0.00;0.62;;;;;10.40;4.40;;;;;;2272751;61;1026;-87
2021/11/20 05:11:38;111788.00;0.37;193.92;0.00;0.00;0.62;;;;;10.40;2.70;;;;;;2266068;61;1005;-86
2021/11/20 05:14:05;68253.00;0.23;118.74;0.00;0.00;0.62;;;;;10.40;2.10;;;;;;2269307;61;1934;-86
2021/11/20 05:16:33;25694.00;0.09;45.13;0.00;0.00;0.62;;;;;10.30;3.60;;;;;;2273076;61;1369;-87
2021/11/20 05:18:59;138722.00;0.46;240.37;0.00;0.00;0.62;;;;;10.30;2.90;;;;;;2273093;61;945;-87
2021/11/20 05:21:28;90660.00;0.30;157.45;0.00;0.00;0.62;;;;;10.20;4.50;;;;;;2273069;61;917;-86
2021/11/20 05:23:54;89908.00;0.30;156.15;0.00;0.00;0.62;;;;;10.30;3.60;;;;;;2273081;61;1017;-87
2021/11/20 05:26:23;151194.00;0.50;261.87;26386.00;0.09;46.33;;;;;10.50;2.80;;;;;;2265948;61;1629;-85
2021/11/20 05:28:56;329738.00;1.10;569.04;0.00;0.00;0.62;;;;;10.50;2.30;;;;;;2264488;61;963;-87
2021/11/20 05:31:24;246150.00;0.82;425.33;7261.00;0.02;13.20;;;;;10.30;2.20;;;;;;2264497;61;1021;-87
2021/11/20 05:33:51;246476.00;0.82;425.89;45563.00;0.15;79.51;;;;;10.50;1.70;;;;;;2257772;61;1989;-86
2021/11/20 05:36:20;119716.00;0.40;207.59;0.00;0.00;0.62;;;;;10.70;3.40;;;;;;2261071;61;1494;-86
2021/11/20 05:38:48;145998.00;0.49;252.91;0.00;0.00;0.62;;;;;10.90;2.60;;;;;;2254579;61;955;-87
2021/11/20 05:41:15;158732.00;0.53;274.85;0.00;0.00;0.62;;;;;11.00;1.00;;;;;;2254556;61;958;-88
2021/11/20 05:43:42;45113.00;0.15;78.73;0.00;0.00;0.62;;;;;10.80;1.90;;;;;;2254589;61;1001;-86
2021/11/20 05:46:13;89415.00;0.30;155.30;0.00;0.00;0.62;;;;;10.80;1.90;;;;;;2265927;61;1432;-86
2021/11/20 05:48:40;90457.00;0.30;157.10;0.00;0.00;0.62;;;;;11.10;1.00;;;;;;2273007;61;1036;-87
2021/11/20 05:51:07;256377.00;0.85;442.92;35382.00;0.12;61.90;;;;;11.00;2.10;;;;;;2269193;61;1012;-87
2021/11/20 05:53:34;371626.00;1.24;641.03;64730.00;0.22;112.65;;;;;11.10;2.10;;;;;;2265807;61;2010;-87
2021/11/20 05:56:03;200460.00;0.67;346.72;3483.00;0.01;6.66;;;;;11.30;2.30;;;;;;2265887;61;1337;-87
2021/11/20 05:58:30;292726.00;0.98;505.42;0.00;0.00;0.62;;;;;11.90;1.00;;;;;;2265884;61;994;-88
2021/11/20 06:01:00;117972.00;0.39;204.58;0.00;0.00;0.62;;;;;12.10;1.00;;;;;;2272946;61;1046;-87
2021/11/20 06:03:28;389954.00;1.30;672.54;0.00;0.00;0.62;;;;;11.70;1.00;;;;;;2265803;61;995;-87
2021/11/20 06:05:56;44194.00;0.15;77.14;0.00;0.00;0.62;;;;;11.30;1.00;;;;;;2265814;61;1383;-87
2021/11/20 06:08:24;231242.00;0.77;399.69;33788.00;0.11;59.14;;;;;11.00;1.00;;;;;;2265805;61;1089;-86
2021/11/20 06:10:53;137625.00;0.46;238.48;0.00;0.00;0.62;;;;;11.00;1.00;;;;;;2272913;61;1167;-87
2021/11/20 06:13:22;114810.00;0.38;199.13;0.00;0.00;0.62;;;;;10.70;1.00;;;;;;2265799;61;1916;-87
2021/11/20 06:15:51;153459.00;0.51;265.77;10194.00;0.03;18.29;;;;;10.70;1.50;;;;;;2272927;61;1438;-86
2021/11/20 06:18:18;113589.00;0.38;197.02;0.00;0.00;0.62;;;;;10.80;1.20;;;;;;2272838;61;1526;-87
2021/11/20 06:20:48;191952.00;0.64;332.07;0.00;0.00;0.62;;;;;10.70;2.10;;;;;;2265555;61;1028;-87
2021/11/20 06:23:15;27963.00;0.09;49.06;0.00;0.00;0.62;;;;;10.70;2.40;;;;;;2265826;61;1111;-87
2021/11/20 06:25:42;0.00;0.00;0.62;0.00;0.00;0.62;;;;;10.80;1.00;;;;;;2265803;61;1436;-86
2021/11/20 06:28:10;131561.00;0.44;228.02;0.00;0.00;0.62;;;;;10.70;1.00;;;;;;2265813;61;1015;-87
2021/11/20 06:30:38;133925.00;0.45;232.10;0.00;0.00;0.62;;;;;10.60;1.80;;;;;;2264256;61;1057;-87
2021/11/20 06:33:05;133505.00;0.45;231.37;0.00;0.00;0.62;;;;;10.80;1.90;;;;;;2264195;61;2005;-88
2021/11/20 06:35:37;29080.00;0.10;50.99;0.00;0.00;0.62;;;;;11.30;1.50;;;;;;2257640;61;1409;-86
2021/11/20 06:38:04;289013.00;0.96;499.03;88105.00;0.29;153.04;;;;;11.30;1.00;;;;;;2260937;61;972;-88
2021/11/20 06:40:35;203286.00;0.68;351.58;88274.00;0.29;153.33;;;;;11.50;1.50;;;;;;2260838;61;1044;-87
2021/11/20 06:43:03;328547.00;1.10;566.99;89442.00;0.30;155.34;;;;;11.50;1.00;;;;;;2257555;61;964;-87
2021/11/20 06:45:33;362377.00;1.21;625.13;86074.00;0.29;149.53;;;;;11.80;1.00;;;;;;2260783;61;1285;-87
2021/11/20 06:48:02;278323.00;0.93;480.65;96351.00;0.32;167.27;;;;;11.60;1.00;;;;;;2265839;61;922;-87
2021/11/20 06:50:29;265964.00;0.89;459.40;100263.00;0.33;174.03;;;;;11.80;1.00;;;;;;2262333;61;974;-88
2021/11/20 06:52:56;441870.00;1.47;761.80;105769.00;0.35;183.53;;;;;11.70;1.00;;;;;;2262306;61;1920;-87
2021/11/20 07:00:34;85043.00;0.28;147.75;0.00;0.00;0.62;;;;;11.80;1.00;;;;;;2276020;61;1732;-87
2021/11/20 07:03:09;141569.00;0.47;245.28;0.00;0.00;0.62;;;;;11.80;1.00;;;;;;2265956;61;1356;-87
2021/11/20 07:05:41;43316.00;0.14;75.63;0.00;0.00;0.62;;;;;12.10;1.20;;;;;;2268364;61;1316;-86
2021/11/20 07:08:09;104664.00;0.35;181.62;0.00;0.00;0.62;;;;;11.80;1.00;;;;;;2268346;61;1008;-87
2021/11/20 07:10:37;47230.00;0.16;82.40;0.00;0.00;0.62;;;;;11.80;1.00;;;;;;2261318;61;1022;-88
2021/11/20 07:13:05;139196.00;0.46;241.18;0.00;0.00;0.62;;;;;12.00;1.00;;;;;;2261238;61;2004;-87
2021/11/20 07:15:33;147577.00;0.49;255.63;0.00;0.00;0.62;;;;;12.20;1.00;;;;;;2268318;61;1442;-87
2021/11/20 07:18:00;124436.00;0.41;215.73;0.00;0.00;0.62;;;;;12.00;1.00;;;;;;2261270;61;1073;-87
2021/11/20 07:20:31;139991.00;0.47;242.56;0.00;0.00;0.62;;;;;12.40;1.20;;;;;;2268345;61;923;-87
2021/11/20 07:22:58;9313.00;0.03;16.76;0.00;0.00;0.62;;;;;12.20;1.00;;;;;;2268329;61;942;-87
2021/11/20 07:25:29;73923.00;0.25;128.54;0.00;0.00;0.62;;;;;11.70;1.00;;;;;;2261285;61;1457;-87
2021/11/20 07:27:57;81870.00;0.27;142.27;0.00;0.00;0.62;;;;;11.80;1.00;;;;;;2261286;61;1164;-86
2021/11/20 07:30:27;38951.00;0.13;68.07;0.00;0.00;0.62;;;;;12.20;1.10;;;;;;2268397;61;1078;-87
2021/11/20 07:32:54;43677.00;0.15;76.25;0.00;0.00;0.62;;;;;12.40;1.00;;;;;;2261214;61;2001;-89
2021/11/20 07:35:26;90636.00;0.30;157.41;0.00;0.00;0.62;;;;;12.80;1.00;;;;;;2268304;61;1416;-87
2021/11/20 07:37:54;32110.00;0.11;56.24;0.00;0.00;0.62;;;;;12.60;1.00;;;;;;2268374;61;1184;-87
2021/11/20 07:40:22;236752.00;0.79;409.16;87382.00;0.29;151.79;;;;;13.30;1.00;;;;;;2261302;61;957;-86
2021/11/20 07:42:49;117972080.00;393.24;66507700.00;0.00;0.00;0.62;;;;;13.10;1.00;;;;;;2268265;61;1004;-86
2021/11/20 07:45:16;7125.00;0.02;12.97;0.00;0.00;0.62;;;;;13.00;1.00;;;;;;2264577;61;1318;-87
2021/11/20 07:47:43;74118.00;0.25;128.88;0.00;0.00;0.62;;;;;12.50;1.00;;;;;;2268350;61;1174;-86
2021/11/20 07:50:11;159408.00;0.53;276.02;0.00;0.00;0.62;;;;;11.90;1.00;;;;;;2268322;61;1035;-86
2021/11/20 07:52:38;79672.00;0.27;138.47;0.00;0.00;0.62;;;;;11.80;1.00;;;;;;2261158;61;1019;-87
2021/11/20 07:55:07;83042.00;0.28;144.29;0.00;0.00;0.62;;;;;12.00;1.00;;;;;;2261194;61;2022;-86
2021/11/20 07:57:34;48416.00;0.16;84.45;0.00;0.00;0.62;;;;;12.60;1.50;;;;;;2268283;61;1023;-86
2021/11/20 08:00:01;114721.00;0.38;198.98;0.00;0.00;0.62;;;;;12.70;1.00;;;;;;2263578;61;910;-87
2021/11/20 08:02:28;99954.00;0.33;173.49;0.00;0.00;0.62;;;;;12.70;1.00;;;;;;2256184;61;1067;-87
2021/11/20 08:04:55;72105.00;0.24;125.40;0.00;0.00;0.62;;;;;12.80;1.00;;;;;;2267695;61;1302;-87
2021/11/20 08:07:22;92304.00;0.31;160.29;0.00;0.00;0.62;;;;;12.50;1.00;;;;;;2267739;61;1010;-87
2021/11/20 08:09:48;162256.00;0.54;280.93;0.00;0.00;0.62;;;;;12.50;1.00;;;;;;2267798;61;1044;-88
2021/11/20 08:12:17;198333.00;0.66;343.05;0.00;0.00;0.62;;;;;12.00;1.00;;;;;;2267813;61;1074;-87
2021/11/20 08:14:44;337663.00;1.13;582.66;0.00;0.00;0.62;;;;;12.40;1.00;;;;;;2263541;61;1993;-87
2021/11/20 08:17:11;84740.00;0.28;147.22;0.00;0.00;0.62;;;;;12.80;1.00;;;;;;2263846;61;1071;-87
2021/11/20 08:19:38;325740.00;1.09;562.16;41088.00;0.14;71.77;;;;;12.60;1.00;;;;;;2253876;61;975;-87
2021/11/20 08:22:05;35962.00;0.12;62.90;0.00;0.00;0.62;;;;;12.70;1.00;;;;;;2263792;61;1040;-86
2021/11/20 08:24:32;200983.00;0.67;347.62;41702.00;0.14;72.83;;;;;13.00;1.00;;;;;;2263782;61;1355;-87
2021/11/20 08:26:59;133971.00;0.45;232.18;0.00;0.00;0.62;;;;;13.00;1.00;;;;;;2263736;61;1033;-86
2021/11/20 08:29:30;239787.00;0.80;414.38;10385.00;0.03;18.62;;;;;12.50;1.00;;;;;;2251624;61;940;-87
2021/11/20 08:31:58;120754200.00;402.51;71329400.00;0.00;0.00;0.62;;;;;12.70;1.00;;;;;;2249502;61;1001;-87
2021/11/20 08:34:27;71380.00;0.24;124.15;0.00;0.00;0.62;;;;;13.00;1.00;;;;;;2259707;61;1904;-88
2021/11/20 08:36:54;189174.00;0.63;327.29;0.00;0.00;0.62;;;;;12.60;1.00;;;;;;2259758;61;1026;-86
2021/11/20 08:39:21;46352.00;0.15;80.88;0.00;0.00;0.62;;;;;12.70;1.00;;;;;;2259759;61;1021;-87
2021/11/20 08:41:50;57968.00;0.19;100.96;0.00;0.00;0.62;;;;;13.10;1.00;;;;;;2259717;61;1081;-87
2021/11/20 08:44:16;141645.00;0.47;245.41;0.00;0.00;0.62;;;;;13.20;1.00;;;;;;2255933;61;994;-87
2021/11/20 08:46:45;83957.00;0.28;145.87;0.00;0.00;0.62;;;;;13.10;1.00;;;;;;2247818;61;1437;-86
2021/11/20 08:49:13;144613.00;0.48;250.52;0.00;0.00;0.62;;;;;12.40;1.00;;;;;;2254545;61;1009;-86
2021/11/20 08:51:40;161005.00;0.54;278.77;0.00;0.00;0.62;;;;;12.00;1.00;;;;;;2252379;61;978;-88
2021/11/20 08:54:07;126111.00;0.42;218.62;0.00;0.00;0.62;;;;;12.60;1.00;;;;;;2252420;61;1918;-86
2021/11/20 08:56:40;164379.00;0.55;284.58;0.00;0.00;0.62;;;;;12.60;1.00;;;;;;2245792;61;1407;-87
2021/11/20 08:59:09;168234.00;0.56;291.22;0.00;0.00;0.62;;;;;12.50;1.00;;;;;;2242584;61;957;-87
2021/11/20 09:01:40;58182.00;0.19;101.33;0.00;0.00;0.62;;;;;12.60;1.00;;;;;;2241839;61;968;-87
2021/11/20 09:04:11;253499.00;0.84;437.97;55290.00;0.18;96.33;;;;;13.20;1.00;;;;;;2248193;61;1140;-86
2021/11/20 09:06:48;78022.00;0.26;135.62;0.00;0.00;0.62;;;;;12.90;1.00;;;;;;2248402;61;1460;-86
2021/11/20 09:09:19;0.00;0.00;0.62;0.00;0.00;0.62;;;;;13.20;1.00;;;;;;2255278;61;953;-86
2021/11/20 09:11:51;18228.00;0.06;32.20;0.00;0.00;0.62;;;;;13.30;1.00;;;;;;2257635;61;1055;-86
2021/11/20 09:14:29;67299.00;0.22;117.09;0.00;0.00;0.62;;;;;14.00;1.00;;;;;;2263959;61;1994;-87
2021/11/20 09:16:59;28990.00;0.10;50.83;0.00;0.00;0.62;;;;;14.50;1.00;;;;;;2263550;61;1101;-87
2021/11/20 09:19:30;110392.00;0.37;191.51;0.00;0.00;0.62;;;;;14.90;1.00;;;;;;2263698;61;1091;-89
2021/11/20 09:21:58;103415.00;0.34;179.47;0.00;0.00;0.62;;;;;14.80;1.00;;;;;;2268781;61;905;-86
2021/11/20 09:24:26;187902.00;0.63;325.10;0.00;0.00;0.62;;;;;14.90;1.00;;;;;;2268729;61;1428;-89
2021/11/20 09:26:53;41264.00;0.14;72.08;0.00;0.00;0.62;;;;;14.40;1.00;;;;;;2268733;61;1149;-88
2021/11/20 09:29:25;101548.00;0.34;176.24;0.00;0.00;0.62;;;;;13.60;1.00;;;;;;2268784;61;1022;-87
2021/11/20 09:31:52;49739.00;0.17;86.73;0.00;0.00;0.62;;;;;13.20;1.00;;;;;;2268824;61;1071;-87
2021/11/20 09:34:20;47750.00;0.16;83.29;0.00;0.00;0.62;;;;;12.60;1.00;;;;;;2268738;61;1994;-86
2021/11/20 09:36:52;15855.00;0.05;28.09;0.00;0.00;0.62;;;;;11.80;1.00;;;;;;2268708;61;1560;-87
2021/11/20 09:39:21;1258.00;0.00;2.80;0.00;0.00;0.62;;;;;11.70;1.00;;;;;;2268798;61;937;-87
2021/11/20 09:42:12;92852.00;0.31;161.23;0.00;0.00;0.62;;;;;11.50;1.00;;;;;;2268720;61;1150;-87
2021/11/20 09:44:43;455102.00;1.52;784.56;74457.00;0.25;129.46;;;;;11.20;1.00;;;;;;2261659;61;1473;-87
2021/11/20 09:47:14;541664.00;1.81;933.59;84565.00;0.28;146.92;;;;;11.20;1.00;;;;;;2264923;61;982;-87
2021/11/20 09:49:45;506899.00;1.69;873.70;97929.00;0.33;170.00;;;;;11.40;1.00;;;;;;2268705;61;942;-86
2021/11/20 09:52:14;566972.00;1.89;977.22;89995.00;0.30;156.30;;;;;11.50;1.00;;;;;;2268697;61;1018;-88
2021/11/20 09:54:44;505795.00;1.69;871.80;125810.00;0.42;218.10;;;;;12.10;1.00;;;;;;2268609;61;1990;-88